createdAt,value
2022-08-23T00:01:18.923Z,6.60
2022-08-23T00:03:48.295Z,5.53
2022-08-23T00:06:15.658Z,4.95
2022-08-23T00:08:48.958Z,4.75
2022-08-23T00:11:44.830Z,4.78
2022-08-23T00:14:16.239Z,4.97
2022-08-23T00:16:43.249Z,5.60
2022-08-23T00:19:13.170Z,5.07
2022-08-23T00:21:41.580Z,4.55
2022-08-23T00:24:09.826Z,6.40
2022-08-23T00:26:57.920Z,4.85
2022-08-23T00:29:28.742Z,5.60
2022-08-23T00:31:55.599Z,4.80
2022-08-23T00:34:22.525Z,5.88
2022-08-23T00:36:50.642Z,5.60
2022-08-23T00:39:19.211Z,5.45
2022-08-23T00:41:47.679Z,4.65
2022-08-23T00:44:40.879Z,4.32
2022-08-23T00:47:27.864Z,4.38
2022-08-23T00:50:23.321Z,4.78
2022-08-23T00:53:12.980Z,4.90
2022-08-23T00:55:42.439Z,4.28
2022-08-23T00:58:09.688Z,5.00
2022-08-23T01:00:36.610Z,4.28
2022-08-23T01:03:07.587Z,4.82
2022-08-23T01:06:11.620Z,5.72
2022-08-23T01:08:40.159Z,5.35
2022-08-23T01:11:33.391Z,6.25
2022-08-23T01:14:29.875Z,5.18
2022-08-23T01:19:42.314Z,5.25
2022-08-23T01:22:16.180Z,5.03
2022-08-23T01:25:07.761Z,3.92
2022-08-23T01:27:32.193Z,4.45
2022-08-23T01:30:00.219Z,4.60
2022-08-23T01:32:27.495Z,5.05
2022-08-23T01:34:54.420Z,4.15
2022-08-23T01:37:22.057Z,4.28
2022-08-23T01:39:48.942Z,4.38
2022-08-23T01:42:15.816Z,4.38
2022-08-23T01:44:42.667Z,4.70
2022-08-23T01:47:09.501Z,4.07
2022-08-23T01:49:36.407Z,4.47
2022-08-23T01:52:03.957Z,3.78
2022-08-23T01:54:30.810Z,4.50
2022-08-23T01:56:57.741Z,3.60
2022-08-23T01:59:24.645Z,4.10
2022-08-23T02:01:52.792Z,3.30
2022-08-23T02:04:19.954Z,3.55
2022-08-23T02:06:46.759Z,4.07
2022-08-23T02:09:17.334Z,3.75
2022-08-23T02:11:45.584Z,4.38
2022-08-23T02:14:16.743Z,3.60
2022-08-23T02:17:02.743Z,3.15
2022-08-23T02:19:32.810Z,3.55
2022-08-23T02:21:59.849Z,3.33
2022-08-23T02:24:27.108Z,3.67
2022-08-23T02:26:57.673Z,3.85
2022-08-23T02:29:26.064Z,3.63
2022-08-23T02:31:53.200Z,3.00
2022-08-23T02:34:20.485Z,3.40
2022-08-23T02:36:47.928Z,3.42
2022-08-23T02:39:17.174Z,3.22
2022-08-23T02:41:44.513Z,3.60
2022-08-23T02:44:12.053Z,4.28
2022-08-23T02:46:40.091Z,4.47
2022-08-23T02:49:07.852Z,3.38
2022-08-23T02:51:34.774Z,3.50
2022-08-23T02:54:01.867Z,3.72
2022-08-23T02:56:28.767Z,3.58
2022-08-23T02:58:55.630Z,3.13
2022-08-23T03:01:28.751Z,3.55
2022-08-23T03:03:56.926Z,3.53
2022-08-23T03:06:26.320Z,3.53
2022-08-23T03:08:54.913Z,3.60
2022-08-23T03:11:23.462Z,4.18
2022-08-23T03:13:51.234Z,3.22
2022-08-23T03:16:19.564Z,3.67
2022-08-23T03:18:47.333Z,3.30
2022-08-23T03:21:14.886Z,3.25
2022-08-23T03:23:41.770Z,3.28
2022-08-23T03:26:11.381Z,3.80
2022-08-23T03:28:40.205Z,3.70
2022-08-23T03:31:08.100Z,3.35
2022-08-23T03:33:35.458Z,3.35
2022-08-23T03:36:06.394Z,3.53
2022-08-23T03:38:34.218Z,4.15
2022-08-23T03:41:01.914Z,3.70
2022-08-23T03:43:29.181Z,3.30
2022-08-23T03:45:56.103Z,3.33
2022-08-23T03:48:23.411Z,3.90
2022-08-23T03:50:50.294Z,3.47
2022-08-23T03:53:23.790Z,4.28
2022-08-23T03:55:53.323Z,4.20
2022-08-23T03:58:21.572Z,3.63
2022-08-23T04:00:48.788Z,3.85
2022-08-23T04:03:15.626Z,3.95
2022-08-23T04:05:42.485Z,3.33
2022-08-23T04:08:10.985Z,3.88
2022-08-23T04:10:39.170Z,3.83
2022-08-23T04:13:07.375Z,5.05
2022-08-23T04:15:34.831Z,3.85
2022-08-23T04:18:01.913Z,3.92
2022-08-23T04:20:29.247Z,3.72
2022-08-23T04:22:57.413Z,3.50
2022-08-23T04:25:33.495Z,3.85
2022-08-23T04:28:02.738Z,4.32
2022-08-23T04:30:29.856Z,4.13
2022-08-23T04:32:57.375Z,3.88
2022-08-23T04:35:25.581Z,3.67
2022-08-23T04:37:53.592Z,3.88
2022-08-23T04:40:38.906Z,3.90
2022-08-23T04:43:06.962Z,3.90
2022-08-23T04:45:33.790Z,4.35
2022-08-23T04:48:00.814Z,3.80
2022-08-23T04:50:27.722Z,4.45
2022-08-23T04:52:54.543Z,4.15
2022-08-23T04:55:22.191Z,4.07
2022-08-23T04:57:49.080Z,4.18
2022-08-23T05:00:16.801Z,4.68
2022-08-23T05:02:43.820Z,3.95
2022-08-23T05:05:11.335Z,4.75
2022-08-23T05:07:42.748Z,3.78
2022-08-23T05:10:15.209Z,4.63
2022-08-23T05:12:42.717Z,4.88
2022-08-23T05:15:10.143Z,4.45
2022-08-23T05:17:37.992Z,4.47
2022-08-23T05:20:07.260Z,5.38
2022-08-23T05:22:35.788Z,4.50
2022-08-23T05:25:03.122Z,4.38
2022-08-23T05:27:30.272Z,4.95
2022-08-23T05:29:57.187Z,5.40
2022-08-23T05:32:24.190Z,5.50
2022-08-23T05:34:51.084Z,6.00
2022-08-23T05:37:18.065Z,6.03
2022-08-23T05:39:45.015Z,7.20
2022-08-23T05:42:14.874Z,6.22
2022-08-23T05:44:42.453Z,6.53
2022-08-23T05:47:12.526Z,7.18
2022-08-23T05:49:42.799Z,6.85
2022-08-23T05:52:13.865Z,6.35
2022-08-23T05:54:40.977Z,6.28
2022-08-23T05:57:07.970Z,5.95
2022-08-23T05:59:34.859Z,6.05
2022-08-23T06:02:02.056Z,5.70
2022-08-23T06:04:29.089Z,5.90
2022-08-23T06:06:58.891Z,5.65
2022-08-23T06:09:26.380Z,5.80
2022-08-23T06:11:53.937Z,6.97
2022-08-23T06:14:20.930Z,6.60
2022-08-23T06:16:54.979Z,7.10
2022-08-23T06:19:24.071Z,5.72
2022-08-23T06:21:52.237Z,7.25
2022-08-23T06:24:20.075Z,5.95
2022-08-23T06:26:47.051Z,6.45
2022-08-23T06:29:17.051Z,5.82
2022-08-23T06:31:50.121Z,7.35
2022-08-23T06:34:40.038Z,8.50
2022-08-23T06:37:14.590Z,7.45
2022-08-23T06:39:42.457Z,7.50
2022-08-23T06:42:38.158Z,6.97
2022-08-23T06:45:02.005Z,7.28
2022-08-23T06:47:28.898Z,8.40
2022-08-23T06:49:58.379Z,8.15
2022-08-23T06:52:27.548Z,7.20
2022-08-23T06:54:54.788Z,8.15
2022-08-23T06:57:21.872Z,7.40
2022-08-23T06:59:49.962Z,8.20
2022-08-23T07:02:17.232Z,8.40
2022-08-23T07:04:44.358Z,8.98
2022-08-23T07:07:12.170Z,8.93
2022-08-23T07:09:40.997Z,9.65
2022-08-23T07:12:08.154Z,8.38
2022-08-23T07:14:36.710Z,7.97
2022-08-23T07:17:04.569Z,10.30
2022-08-23T07:19:33.962Z,8.57
2022-08-23T07:22:01.967Z,8.98
2022-08-23T07:24:32.963Z,9.65
2022-08-23T07:27:06.367Z,10.52
2022-08-23T07:29:34.174Z,9.60
2022-08-23T07:32:01.074Z,9.43
2022-08-23T07:34:28.885Z,9.05
2022-08-23T07:36:55.850Z,8.57
2022-08-23T07:39:23.796Z,10.85
2022-08-23T07:41:52.640Z,8.80
2022-08-23T07:44:20.075Z,9.88
2022-08-23T07:46:50.531Z,10.35
2022-08-23T07:49:17.422Z,9.57
2022-08-23T07:51:48.088Z,9.93
2022-08-23T07:54:15.228Z,9.55
2022-08-23T07:56:42.213Z,10.77
2022-08-23T07:59:09.912Z,10.32
2022-08-23T08:01:37.553Z,11.10
2022-08-23T08:04:06.099Z,11.15
2022-08-23T08:06:42.739Z,10.27
2022-08-23T08:09:10.619Z,11.63
2022-08-23T08:11:37.930Z,10.93
2022-08-23T08:14:07.609Z,9.48
2022-08-23T08:16:41.477Z,10.32
2022-08-23T08:19:10.818Z,11.02
2022-08-23T08:21:41.976Z,11.07
2022-08-23T08:24:12.785Z,11.68
2022-08-23T08:26:40.786Z,10.15
2022-08-23T08:29:07.737Z,10.77
2022-08-23T08:31:36.394Z,11.30
2022-08-23T08:34:03.238Z,10.25
2022-08-23T08:36:36.632Z,11.40
2022-08-23T08:39:10.477Z,10.98
2022-08-23T08:42:04.565Z,11.52
2022-08-23T08:44:53.157Z,12.45
2022-08-23T08:47:26.259Z,11.50
2022-08-23T08:49:58.293Z,9.82
2022-08-23T08:52:32.793Z,11.07
2022-08-23T08:55:18.061Z,10.60
2022-08-23T08:57:46.761Z,10.20
2022-08-23T09:00:30.922Z,8.82
2022-08-23T09:03:00.060Z,9.02
2022-08-23T09:05:31.635Z,9.98
2022-08-23T09:08:04.644Z,9.90
2022-08-23T09:10:47.075Z,9.70
2022-08-23T09:13:32.540Z,9.38
2022-08-23T09:16:21.933Z,9.38
2022-08-23T09:18:49.151Z,8.50
2022-08-23T09:21:16.331Z,8.13
2022-08-23T09:23:47.318Z,7.82
2022-08-23T09:26:23.272Z,6.68
2022-08-23T09:28:55.738Z,7.93
2022-08-23T09:32:02.331Z,7.78
2022-08-23T09:34:37.711Z,8.27
2022-08-23T09:37:13.134Z,6.63
2022-08-23T09:39:43.558Z,5.85
2022-08-23T09:42:29.695Z,6.78
2022-08-23T09:44:57.022Z,4.82
2022-08-23T09:47:44.159Z,5.07
2022-08-23T09:50:30.938Z,5.25
2022-08-23T09:53:04.857Z,4.93
2022-08-23T09:55:47.517Z,5.10
2022-08-23T09:58:18.842Z,4.57
2022-08-23T10:01:08.643Z,4.53
2022-08-23T10:03:35.494Z,4.88
2022-08-23T10:06:02.949Z,3.50
2022-08-23T10:08:33.179Z,3.95
2022-08-23T10:11:07.269Z,4.07
2022-08-23T10:13:37.319Z,4.18
2022-08-23T10:16:29.666Z,4.18
2022-08-23T10:19:20.652Z,4.38
2022-08-23T10:22:14.549Z,4.07
2022-08-23T10:25:20.008Z,4.10
2022-08-23T10:28:39.436Z,3.70
2022-08-23T10:31:42.381Z,5.07
2022-08-23T10:34:31.550Z,3.83
2022-08-23T10:37:14.335Z,4.15
2022-08-23T10:40:08.973Z,4.40
2022-08-23T10:43:13.251Z,4.20
2022-08-23T10:45:43.317Z,3.75
2022-08-23T10:48:29.086Z,2.85
2022-08-23T10:51:31.936Z,3.40
2022-08-23T10:54:46.372Z,3.78
2022-08-23T10:57:17.705Z,3.40
2022-08-23T10:59:47.062Z,2.67
2022-08-23T11:02:50.740Z,2.85
2022-08-23T11:05:27.095Z,3.28
2022-08-23T11:08:01.163Z,3.22
2022-08-23T11:10:40.268Z,5.10
2022-08-23T11:13:21.810Z,2.53
2022-08-23T11:16:14.099Z,2.67
2022-08-23T11:18:45.010Z,1.88
2022-08-23T11:21:17.921Z,3.20
2022-08-23T11:23:44.735Z,2.13
2022-08-23T11:26:39.807Z,1.90
2022-08-23T11:29:06.672Z,2.83
2022-08-23T11:31:41.031Z,2.80
2022-08-23T11:34:22.377Z,3.50
2022-08-23T11:37:20.793Z,2.08
2022-08-23T11:40:18.109Z,2.65
2022-08-23T11:42:50.754Z,2.22
2022-08-23T11:45:37.815Z,3.13
2022-08-23T11:48:23.292Z,2.42
2022-08-23T11:53:54.306Z,3.45
2022-08-23T11:56:38.025Z,2.30
2022-08-23T11:59:35.030Z,2.63
2022-08-23T12:02:41.452Z,1.95
2022-08-23T12:05:23.089Z,1.80
2022-08-23T12:08:05.748Z,2.30
2022-08-23T12:10:41.516Z,2.65
2022-08-23T12:13:23.191Z,2.80
2022-08-23T12:16:16.155Z,1.70
2022-08-23T12:18:53.398Z,1.95
2022-08-23T12:21:39.109Z,1.92
2022-08-23T12:24:30.204Z,1.83
2022-08-23T12:27:03.172Z,1.65
2022-08-23T12:29:43.081Z,1.90
2022-08-23T12:32:12.666Z,2.10
2022-08-23T12:35:20.833Z,2.40
2022-08-23T12:38:05.164Z,1.80
2022-08-23T12:40:42.112Z,2.53
2022-08-23T12:43:22.251Z,2.30
2022-08-23T12:45:55.730Z,2.22
2022-08-23T12:48:26.755Z,2.35
2022-08-23T12:51:07.355Z,1.90
2022-08-23T12:53:41.388Z,2.00
2022-08-23T12:56:30.483Z,2.38
2022-08-23T12:59:06.791Z,2.13
2022-08-23T13:01:38.584Z,2.00
2022-08-23T13:04:14.293Z,1.92
2022-08-23T13:06:46.571Z,1.75
2022-08-23T13:09:43.755Z,1.98
2022-08-23T13:12:20.958Z,2.05
2022-08-23T13:14:51.619Z,2.17
2022-08-23T13:17:27.160Z,2.30
2022-08-23T13:20:10.253Z,2.67
2022-08-23T13:22:44.849Z,1.85
2022-08-23T13:25:29.655Z,2.20
2022-08-23T13:30:33.039Z,2.47
2022-08-23T13:33:08.935Z,1.80
2022-08-23T13:35:40.607Z,2.20
2022-08-23T13:38:19.865Z,2.15
2022-08-23T13:40:59.792Z,2.55
2022-08-23T13:43:40.066Z,2.50
2022-08-23T13:46:22.502Z,1.77
2022-08-23T13:48:49.846Z,2.15
2022-08-23T13:51:26.172Z,2.08
2022-08-23T13:53:54.355Z,2.33
2022-08-23T13:56:21.587Z,2.20
2022-08-23T13:59:01.569Z,2.67
2022-08-23T14:01:29.114Z,1.80
2022-08-23T14:03:56.377Z,2.10
2022-08-23T14:06:24.038Z,1.98
2022-08-23T14:08:51.243Z,2.13
2022-08-23T14:11:18.311Z,2.40
2022-08-23T14:13:47.292Z,2.17
2022-08-23T14:16:33.484Z,1.88
2022-08-23T14:19:54.800Z,2.38
2022-08-23T14:21:49.069Z,2.67
2022-08-23T14:24:18.317Z,2.22
2022-08-23T14:26:50.189Z,2.20
2022-08-23T14:29:21.571Z,1.92
2022-08-23T14:31:51.132Z,2.55
2022-08-23T14:34:18.112Z,1.88
2022-08-23T14:37:21.717Z,2.28
2022-08-23T14:39:31.723Z,2.33
2022-08-23T14:41:58.964Z,2.58
2022-08-23T14:44:30.207Z,2.63
2022-08-23T14:47:00.114Z,2.78
2022-08-23T14:49:27.022Z,2.65
2022-08-23T14:51:54.281Z,3.10
2022-08-23T14:54:24.413Z,2.30
2022-08-23T14:56:51.567Z,2.55
2022-08-23T14:59:18.410Z,2.60
2022-08-23T15:01:47.837Z,3.55
2022-08-23T15:04:19.834Z,2.38
2022-08-23T15:07:14.018Z,4.05
2022-08-23T15:09:34.045Z,2.33
2022-08-23T15:14:48.071Z,2.65
2022-08-23T15:17:15.094Z,3.15
2022-08-23T15:19:42.030Z,2.97
2022-08-23T15:22:18.684Z,2.42
2022-08-23T15:24:49.708Z,3.00
2022-08-23T15:27:18.559Z,2.45
2022-08-23T15:29:45.824Z,2.67
2022-08-23T15:32:12.953Z,3.00
2022-08-23T15:34:46.290Z,3.22
2022-08-23T15:37:14.308Z,3.63
2022-08-23T15:39:42.397Z,3.40
2022-08-23T15:42:09.373Z,3.13
2022-08-23T15:44:36.202Z,3.35
2022-08-23T15:47:05.941Z,2.83
2022-08-23T15:49:36.494Z,2.83
2022-08-23T15:52:05.019Z,2.78
2022-08-23T15:54:32.250Z,2.60
2022-08-23T15:56:59.334Z,2.78
2022-08-23T15:59:26.539Z,3.35
2022-08-23T16:01:53.508Z,3.00
2022-08-23T16:04:20.555Z,3.50
2022-08-23T16:06:48.027Z,2.60
2022-08-23T16:09:24.783Z,3.50
2022-08-23T16:11:51.962Z,3.22
2022-08-23T16:14:18.960Z,2.83
2022-08-23T16:16:46.790Z,2.80
2022-08-23T16:19:14.439Z,3.05
2022-08-23T16:21:44.556Z,3.85
2022-08-23T16:24:11.869Z,2.75
2022-08-23T16:26:41.751Z,3.25
2022-08-23T16:29:13.284Z,3.75
2022-08-23T16:31:41.738Z,2.70
2022-08-23T16:34:10.896Z,3.22
2022-08-23T16:36:39.727Z,3.03
2022-08-23T16:39:07.090Z,3.30
2022-08-23T16:41:33.991Z,3.03
2022-08-23T16:44:00.833Z,3.55
2022-08-23T16:46:29.244Z,2.95
2022-08-23T16:48:56.315Z,3.60
2022-08-23T16:51:23.257Z,3.15
2022-08-23T16:54:01.610Z,3.10
2022-08-23T16:56:33.369Z,3.97
2022-08-23T16:59:00.238Z,3.80
2022-08-23T17:01:27.676Z,2.97
2022-08-23T17:03:54.615Z,3.50
2022-08-23T17:06:21.590Z,2.97
2022-08-23T17:08:48.443Z,2.63
2022-08-23T17:11:19.727Z,2.95
2022-08-23T17:13:46.798Z,3.10
2022-08-23T17:16:13.774Z,3.78
2022-08-23T17:18:40.841Z,3.10
2022-08-23T17:21:09.280Z,3.22
2022-08-23T17:23:39.309Z,3.00
2022-08-23T17:26:08.702Z,3.40
2022-08-23T17:28:35.863Z,3.17
2022-08-23T17:31:02.714Z,3.42
2022-08-23T17:33:29.616Z,3.30
2022-08-23T17:35:56.455Z,4.10
2022-08-23T17:38:23.242Z,3.53
2022-08-23T17:40:50.186Z,3.42
2022-08-23T17:43:17.026Z,3.40
2022-08-23T17:45:47.224Z,3.92
2022-08-23T17:48:15.292Z,3.30
2022-08-23T17:50:43.546Z,3.40
2022-08-23T17:53:11.875Z,3.33
2022-08-23T17:55:40.761Z,3.40
2022-08-23T17:58:08.723Z,3.38
2022-08-23T18:00:38.238Z,3.22
2022-08-23T18:03:05.976Z,3.38
2022-08-23T18:05:34.295Z,3.20
2022-08-23T18:08:01.735Z,3.42
2022-08-23T18:10:30.060Z,4.43
2022-08-23T18:12:58.592Z,3.40
2022-08-23T18:15:26.903Z,4.28
2022-08-23T18:17:57.541Z,4.65
2022-08-23T18:20:26.875Z,3.90
2022-08-23T18:22:55.534Z,4.57
2022-08-23T18:25:30.085Z,4.22
2022-08-23T18:28:34.687Z,4.85
2022-08-23T18:31:03.773Z,5.20
2022-08-23T18:33:46.339Z,6.35
2022-08-23T18:36:15.737Z,4.47
2022-08-23T18:38:42.645Z,5.03
2022-08-23T18:41:09.451Z,4.05
2022-08-23T18:43:37.239Z,5.22
2022-08-23T18:46:06.000Z,4.25
2022-08-23T18:48:33.103Z,4.53
2022-08-23T18:51:00.452Z,5.10
2022-08-23T18:53:27.828Z,4.90
2022-08-23T18:55:54.927Z,4.47
2022-08-23T18:58:22.857Z,4.25
2022-08-23T19:00:51.451Z,4.80
2022-08-23T19:03:18.558Z,4.60
2022-08-23T19:05:45.458Z,4.60
2022-08-23T19:08:13.468Z,4.85
2022-08-23T19:10:42.573Z,4.35
2022-08-23T19:13:10.977Z,4.53
2022-08-23T19:15:40.579Z,4.47
2022-08-23T19:18:08.363Z,4.10
2022-08-23T19:20:37.292Z,5.03
2022-08-23T19:23:04.679Z,4.70
2022-08-23T19:25:33.987Z,4.50
2022-08-23T19:28:01.012Z,4.80
2022-08-23T19:30:28.333Z,4.18
2022-08-23T19:32:56.584Z,4.57
2022-08-23T19:35:23.658Z,4.57
2022-08-23T19:37:50.647Z,4.50
2022-08-23T19:40:17.966Z,4.78
2022-08-23T19:42:44.972Z,4.25
2022-08-23T19:45:12.464Z,4.13
2022-08-23T19:47:40.295Z,4.10
2022-08-23T19:50:09.635Z,4.40
2022-08-23T19:52:37.130Z,4.32
2022-08-23T19:55:07.150Z,4.65
2022-08-23T19:57:35.472Z,4.63
2022-08-23T20:00:07.600Z,4.40
2022-08-23T20:02:34.475Z,6.32
2022-08-23T20:05:01.285Z,3.85
2022-08-23T20:07:28.420Z,4.60
2022-08-23T20:09:57.479Z,4.32
2022-08-23T20:12:25.946Z,4.30
2022-08-23T20:14:54.054Z,5.65
2022-08-23T20:17:22.839Z,3.58
2022-08-23T20:19:49.827Z,4.00
2022-08-23T20:22:35.158Z,5.18
2022-08-23T20:25:02.383Z,4.00
2022-08-23T20:27:31.073Z,4.78
2022-08-23T20:30:00.271Z,4.05
2022-08-23T20:32:28.283Z,4.03
2022-08-23T20:34:55.161Z,4.50
2022-08-23T20:37:22.009Z,4.20
2022-08-23T20:39:48.923Z,4.78
2022-08-23T20:42:16.326Z,5.72
2022-08-23T20:44:43.239Z,5.05
2022-08-23T20:47:10.578Z,4.00
2022-08-23T20:49:37.578Z,5.18
2022-08-23T20:52:05.180Z,4.68
2022-08-23T20:54:32.528Z,5.13
2022-08-23T20:56:59.338Z,5.07
2022-08-23T20:59:26.582Z,4.88
2022-08-23T21:01:53.523Z,4.97
2022-08-23T21:04:20.857Z,4.63
2022-08-23T21:06:52.568Z,4.25
2022-08-23T21:09:24.684Z,4.80
2022-08-23T21:11:56.814Z,5.20
2022-08-23T21:14:24.238Z,5.72
2022-08-23T21:16:51.223Z,4.82
2022-08-23T21:19:18.881Z,5.15
2022-08-23T21:21:45.791Z,5.35
2022-08-23T21:24:13.294Z,4.68
2022-08-23T21:26:41.090Z,5.10
2022-08-23T21:29:09.549Z,4.78
2022-08-23T21:31:37.575Z,5.50
2022-08-23T21:34:04.811Z,4.93
2022-08-23T21:36:31.640Z,5.15
2022-08-23T21:38:58.496Z,4.35
2022-08-23T21:41:36.561Z,5.13
2022-08-23T21:44:05.851Z,4.65
2022-08-23T21:46:33.428Z,4.85
2022-08-23T21:49:00.544Z,4.63
2022-08-23T21:51:27.755Z,5.30
2022-08-23T21:53:54.847Z,5.05
2022-08-23T21:56:21.995Z,4.90
2022-08-23T21:58:50.662Z,5.32
2022-08-23T22:01:18.622Z,5.25
2022-08-23T22:03:45.781Z,5.82
2022-08-23T22:06:15.172Z,4.53
2022-08-23T22:08:43.477Z,4.85
2022-08-23T22:11:13.357Z,4.93
2022-08-23T22:13:41.300Z,4.85
2022-08-23T22:16:09.080Z,5.38
2022-08-23T22:18:36.024Z,5.13
2022-08-23T22:21:04.251Z,5.53
2022-08-23T22:23:31.886Z,4.82
2022-08-23T22:26:05.637Z,5.03
2022-08-23T22:28:33.186Z,5.03
2022-08-23T22:31:01.981Z,5.72
2022-08-23T22:33:29.432Z,4.85
2022-08-23T22:36:08.031Z,5.28
2022-08-23T22:38:34.893Z,5.22
2022-08-23T22:41:01.885Z,5.05
2022-08-23T22:43:28.772Z,5.40
2022-08-23T22:45:58.722Z,5.10
2022-08-23T22:48:29.405Z,5.60
2022-08-23T22:51:11.639Z,5.03
2022-08-23T22:53:40.706Z,5.05
2022-08-23T22:56:10.312Z,5.45
2022-08-23T22:58:37.184Z,5.50
2022-08-23T23:01:10.791Z,4.95
2022-08-23T23:03:41.537Z,5.65
2022-08-23T23:06:09.109Z,6.15
2022-08-23T23:08:35.879Z,5.00
2022-08-23T23:11:06.036Z,5.63
2022-08-23T23:13:33.953Z,5.20
2022-08-23T23:16:06.800Z,5.55
2022-08-23T23:18:34.768Z,4.88
2022-08-23T23:21:04.746Z,5.65
2022-08-23T23:23:32.929Z,5.05
2022-08-23T23:26:00.220Z,5.25
2022-08-23T23:28:28.141Z,5.70
2022-08-23T23:30:57.641Z,5.32
2022-08-23T23:33:24.862Z,5.07
2022-08-23T23:35:51.820Z,5.15
2022-08-23T23:38:19.298Z,5.47
2022-08-23T23:40:46.356Z,5.50
2022-08-23T23:43:13.574Z,5.53
2022-08-23T23:45:41.497Z,5.15
2022-08-23T23:48:09.267Z,5.85
2022-08-23T23:50:44.853Z,6.00
2022-08-23T23:53:12.327Z,5.03
2022-08-23T23:55:39.237Z,5.63
2022-08-23T23:58:06.028Z,5.90
